Time;durP1;ratioP1;P1;durP2;ratioP2;P2;SDS_P1;SDS_P2;PMS_P1;PMS_P2;Temp;Humidity;BMP_temperature;BMP_pressure;BME280_temperature;BME280_humidity;BME280_pressure;Samples;Min_cycle;Max_cycle;Signal;HPM_P1;HPM_P2
2023/05/24 00:01:55;;;;;;;10.57;10.17;;;7.30;99.90;;;;;;5044633;28;20867;-67
2023/05/24 00:04:23;;;;;;;10.20;9.80;;;7.30;99.90;;;;;;5043608;28;20483;-68
2023/05/24 00:06:53;;;;;;;10.47;10.07;;;7.20;99.90;;;;;;5044385;28;20549;-68
2023/05/24 00:09:21;;;;;;;9.80;9.50;;;7.20;99.90;;;;;;5038328;28;20569;-67
2023/05/24 00:11:48;;;;;;;10.07;9.67;;;7.20;99.90;;;;;;5044683;28;20532;-67
2023/05/24 00:14:15;;;;;;;10.10;9.70;;;7.10;99.90;;;;;;5039860;28;20467;-67
2023/05/24 00:16:42;;;;;;;10.10;9.70;;;7.10;99.90;;;;;;5044333;28;20466;-66
2023/05/24 00:19:10;;;;;;;9.50;9.20;;;7.10;99.90;;;;;;5037297;28;20874;-68
2023/05/24 00:21:38;;;;;;;9.63;9.33;;;7.10;99.90;;;;;;5035939;28;20862;-68
2023/05/24 00:24:05;;;;;;;13.53;9.93;;;7.00;99.90;;;;;;5035667;28;20620;-68
2023/05/24 00:26:33;;;;;;;9.83;9.53;;;6.90;99.90;;;;;;5040283;28;21044;-67
2023/05/24 00:29:00;;;;;;;9.70;9.30;;;6.90;99.90;;;;;;5035654;28;20942;-68
2023/05/24 00:31:27;;;;;;;9.57;9.27;;;6.80;99.90;;;;;;5037469;28;20470;-68
2023/05/24 00:33:53;;;;;;;9.50;9.20;;;6.80;99.90;;;;;;5045709;28;20520;-68
2023/05/24 00:36:21;;;;;;;9.53;9.23;;;6.80;99.90;;;;;;5033011;28;20473;-67
2023/05/24 00:38:48;;;;;;;9.60;9.30;;;6.70;99.90;;;;;;5043004;28;20468;-66
2023/05/24 00:41:14;;;;;;;10.00;9.60;;;6.60;99.90;;;;;;5041363;28;20467;-68
2023/05/24 00:43:43;;;;;;;10.10;9.70;;;6.50;99.90;;;;;;5033107;28;20618;-66
2023/05/24 00:46:16;;;;;;;9.70;9.40;;;6.40;99.90;;;;;;5047886;28;20465;-68
2023/05/24 00:48:44;;;;;;;9.80;9.50;;;6.20;99.90;;;;;;5038308;28;20555;-68
2023/05/24 00:51:12;;;;;;;9.90;9.60;;;6.20;99.90;;;;;;5041009;28;20468;-68
2023/05/24 00:53:41;;;;;;;10.07;9.70;;;6.10;99.90;;;;;;5041681;28;20451;-68
2023/05/24 00:56:08;;;;;;;9.50;9.20;;;6.10;99.90;;;;;;5037020;28;20464;-68
2023/05/24 00:58:35;;;;;;;9.30;9.00;;;6.10;99.90;;;;;;5034802;28;20475;-69
2023/05/24 01:01:05;;;;;;;9.40;9.10;;;6.10;99.90;;;;;;5041669;28;20838;-68
2023/05/24 01:03:32;;;;;;;9.13;8.83;;;6.10;99.90;;;;;;5038040;28;21071;-68
2023/05/24 01:06:01;;;;;;;9.07;8.77;;;6.10;99.90;;;;;;5037678;28;20598;-67
2023/05/24 01:08:46;;;;;;;8.80;8.50;;;6.10;99.90;;;;;;5036293;28;20890;-67
2023/05/24 01:11:21;;;;;;;9.10;8.80;;;6.00;99.90;;;;;;5043302;28;20460;-68
2023/05/24 01:13:58;;;;;;;8.47;8.17;;;5.90;99.90;;;;;;5033377;28;20460;-67
2023/05/24 01:16:36;;;;;;;8.27;7.97;;;5.90;99.90;;;;;;5043570;28;20950;-68
2023/05/24 01:19:21;;;;;;;8.30;8.00;;;5.90;99.90;;;;;;5038282;28;20680;-68
2023/05/24 01:21:58;;;;;;;9.37;9.07;;;5.90;99.90;;;;;;5039103;28;20804;-67
2023/05/24 01:24:30;;;;;;;8.20;7.90;;;5.90;99.90;;;;;;5029793;28;20546;-68
2023/05/24 01:27:07;;;;;;;8.10;7.80;;;5.80;99.90;;;;;;5045033;28;20492;-67
2023/05/24 01:29:35;;;;;;;8.20;7.90;;;5.80;99.90;;;;;;5041088;28;20525;-67
2023/05/24 01:32:04;;;;;;;9.70;9.30;;;5.80;99.90;;;;;;5036829;28;20467;-67
2023/05/24 01:34:32;;;;;;;8.23;7.93;;;5.70;99.90;;;;;;5038159;28;20591;-68
2023/05/24 01:36:59;;;;;;;8.40;8.10;;;5.70;99.90;;;;;;5040975;28;20474;-68
2023/05/24 01:39:28;;;;;;;7.97;7.70;;;5.70;99.90;;;;;;5038078;28;20463;-68
2023/05/24 01:42:07;;;;;;;8.60;8.30;;;5.70;99.90;;;;;;5040797;28;20587;-68
2023/05/24 01:44:39;;;;;;;8.63;8.33;;;5.60;99.90;;;;;;5035774;28;20472;-68
2023/05/24 01:47:20;;;;;;;8.83;8.53;;;5.60;99.90;;;;;;5042218;28;20508;-68
2023/05/24 01:49:50;;;;;;;8.60;8.30;;;5.50;99.90;;;;;;5042000;28;20869;-67
2023/05/24 01:52:22;;;;;;;9.00;8.70;;;5.50;99.90;;;;;;5045943;28;20463;-67
2023/05/24 01:54:51;;;;;;;8.50;8.20;;;5.50;99.90;;;;;;5037974;28;20696;-67
2023/05/24 01:57:20;;;;;;;8.67;8.37;;;5.50;99.90;;;;;;5042217;28;20967;-67
2023/05/24 01:59:49;;;;;;;8.50;8.20;;;5.50;99.90;;;;;;5047405;28;20455;-67
2023/05/24 02:02:17;;;;;;;8.73;8.43;;;5.40;99.90;;;;;;5042997;28;20463;-68
2023/05/24 02:04:44;;;;;;;8.60;8.30;;;5.40;99.90;;;;;;5033490;28;20492;-68
2023/05/24 02:07:11;;;;;;;8.60;8.30;;;5.40;99.90;;;;;;5045006;28;20466;-68
2023/05/24 02:09:37;;;;;;;8.83;8.53;;;5.40;99.90;;;;;;5047731;28;20829;-68
2023/05/24 02:12:05;;;;;;;9.17;8.87;;;5.40;99.90;;;;;;5050880;28;20471;-67
2023/05/24 02:14:32;;;;;;;8.60;8.30;;;5.40;99.90;;;;;;5034357;28;20473;-68
2023/05/24 02:17:01;;;;;;;9.17;8.87;;;5.40;99.90;;;;;;5041163;28;20458;-68
2023/05/24 02:19:28;;;;;;;9.00;8.70;;;5.30;99.90;;;;;;5042438;28;20491;-68
2023/05/24 02:21:55;;;;;;;9.10;8.80;;;5.30;99.90;;;;;;5035926;28;20497;-69
2023/05/24 02:24:23;;;;;;;9.00;8.70;;;5.30;99.90;;;;;;5045580;28;20467;-67
2023/05/24 02:26:50;;;;;;;9.90;9.60;;;5.20;99.90;;;;;;5035789;28;20495;-68
2023/05/24 02:29:17;;;;;;;10.13;9.73;;;5.20;99.90;;;;;;5038573;28;20532;-67
2023/05/24 02:31:45;;;;;;;9.60;9.30;;;5.20;99.90;;;;;;5046299;28;20842;-67
2023/05/24 02:34:14;;;;;;;10.10;9.70;;;5.10;99.90;;;;;;5044219;28;20475;-67
2023/05/24 02:36:42;;;;;;;10.10;9.70;;;5.10;99.90;;;;;;5038166;28;20498;-68
2023/05/24 02:39:09;;;;;;;10.30;9.90;;;5.10;99.90;;;;;;5042296;28;20468;-69
2023/05/24 02:41:35;;;;;;;10.20;9.80;;;5.00;99.90;;;;;;5047297;28;20590;-67
2023/05/24 02:44:02;;;;;;;10.70;10.30;;;4.80;99.90;;;;;;5041521;28;20468;-68
2023/05/24 02:46:29;;;;;;;10.77;10.37;;;4.80;99.90;;;;;;5047423;28;20498;-67
2023/05/24 02:48:56;;;;;;;10.73;10.33;;;4.70;99.90;;;;;;5043054;28;20464;-67
2023/05/24 02:51:24;;;;;;;10.53;10.13;;;4.70;99.90;;;;;;5040609;28;22208;-68
2023/05/24 02:53:51;;;;;;;10.53;10.13;;;4.70;99.90;;;;;;5044153;28;20513;-67
2023/05/24 02:56:18;;;;;;;10.40;10.00;;;4.80;99.90;;;;;;5040278;28;21020;-68
2023/05/24 02:58:45;;;;;;;10.30;9.90;;;4.70;99.90;;;;;;5050222;28;20460;-68
2023/05/24 03:01:14;;;;;;;10.17;9.77;;;4.70;99.90;;;;;;5039558;28;20481;-67
2023/05/24 03:03:41;;;;;;;10.50;10.10;;;4.60;99.90;;;;;;5042246;28;20551;-68
2023/05/24 03:06:12;;;;;;;10.40;10.00;;;4.50;99.90;;;;;;5037270;28;20837;-68
2023/05/24 03:08:41;;;;;;;10.63;10.23;;;4.40;99.90;;;;;;5035808;28;20474;-67
2023/05/24 03:11:08;;;;;;;10.50;10.10;;;4.40;99.90;;;;;;5042188;28;21157;-67
2023/05/24 03:13:35;;;;;;;10.67;10.27;;;4.50;99.90;;;;;;5044189;28;20461;-67
2023/05/24 03:16:02;;;;;;;10.70;10.30;;;4.50;99.90;;;;;;5042334;28;20471;-67
2023/05/24 03:18:28;;;;;;;10.90;10.50;;;4.60;99.90;;;;;;5037627;28;20810;-68
2023/05/24 03:20:56;;;;;;;10.47;10.07;;;4.60;99.90;;;;;;5040257;28;20460;-67
2023/05/24 03:23:22;;;;;;;10.77;10.37;;;4.60;99.90;;;;;;5046583;28;20478;-67
2023/05/24 03:25:50;;;;;;;10.57;10.17;;;4.60;99.90;;;;;;5034628;28;20987;-67
2023/05/24 03:28:21;;;;;;;10.57;10.17;;;4.70;99.90;;;;;;5037267;28;20531;-67
2023/05/24 03:30:47;;;;;;;10.27;9.87;;;4.60;99.90;;;;;;5038935;28;20464;-68
2023/05/24 03:33:15;;;;;;;10.80;10.40;;;4.50;99.90;;;;;;5044805;28;20456;-68
2023/05/24 03:35:43;;;;;;;10.50;10.10;;;4.40;99.90;;;;;;5042716;28;20471;-68
2023/05/24 03:38:10;;;;;;;11.20;10.80;;;4.40;99.90;;;;;;5035574;28;20464;-67
2023/05/24 03:40:37;;;;;;;10.50;10.10;;;4.30;99.90;;;;;;5040111;28;20515;-68
2023/05/24 03:43:06;;;;;;;10.43;10.03;;;4.40;99.90;;;;;;5030071;28;20503;-67
2023/05/24 03:45:33;;;;;;;10.60;10.20;;;4.50;99.90;;;;;;5042640;28;21002;-69
2023/05/24 03:48:01;;;;;;;12.33;11.83;;;4.40;99.90;;;;;;5047435;28;20993;-68
2023/05/24 03:50:29;;;;;;;10.47;10.07;;;4.50;99.90;;;;;;5032971;28;20470;-67
2023/05/24 03:52:56;;;;;;;11.00;10.60;;;4.50;99.90;;;;;;5039248;28;22299;-68
2023/05/24 03:55:23;;;;;;;11.07;10.67;;;4.50;99.90;;;;;;5042208;28;20481;-67
2023/05/24 03:57:50;;;;;;;11.07;10.67;;;4.50;99.90;;;;;;5040439;28;20460;-67
2023/05/24 04:00:19;;;;;;;10.83;10.43;;;4.50;99.90;;;;;;5045519;28;20780;-67
2023/05/24 04:02:46;;;;;;;11.80;11.40;;;4.50;99.90;;;;;;5037632;28;20469;-67
2023/05/24 04:05:13;;;;;;;11.67;11.27;;;4.40;99.90;;;;;;5040692;28;20484;-68
2023/05/24 04:07:40;;;;;;;11.70;11.30;;;4.40;99.90;;;;;;5046034;28;21010;-68
2023/05/24 04:10:08;;;;;;;12.40;11.90;;;4.40;99.90;;;;;;5038915;28;20511;-69
2023/05/24 04:12:36;;;;;;;12.37;11.87;;;4.30;99.90;;;;;;5045403;28;20487;-68
2023/05/24 04:15:04;;;;;;;12.50;12.00;;;4.30;99.90;;;;;;5035175;28;20472;-68
2023/05/24 04:17:34;;;;;;;11.90;11.40;;;4.40;99.90;;;;;;5039562;28;20468;-67
2023/05/24 04:20:01;;;;;;;11.67;11.27;;;4.50;99.90;;;;;;5038409;28;20493;-68
2023/05/24 04:22:28;;;;;;;11.70;11.20;;;4.70;99.90;;;;;;5029720;28;20527;-68
2023/05/24 04:24:56;;;;;;;11.23;10.83;;;4.80;99.90;;;;;;5043465;28;20483;-67
2023/05/24 04:27:24;;;;;;;11.30;10.90;;;4.90;99.90;;;;;;5034208;28;20475;-67
2023/05/24 04:29:51;;;;;;;10.80;10.40;;;5.00;99.90;;;;;;5034673;28;20456;-68
2023/05/24 04:32:18;;;;;;;11.23;10.83;;;5.00;99.90;;;;;;5042854;28;20815;-68
2023/05/24 04:34:46;;;;;;;11.93;11.47;;;5.10;99.90;;;;;;5047164;28;20473;-68
2023/05/24 04:37:15;;;;;;;11.83;11.43;;;5.10;99.90;;;;;;5043443;28;20969;-67
2023/05/24 04:39:44;;;;;;;11.20;10.80;;;5.20;99.90;;;;;;5035769;28;20467;-68
2023/05/24 04:42:12;;;;;;;12.27;11.77;;;5.30;99.90;;;;;;5042715;28;20487;-67
2023/05/24 04:44:41;;;;;;;12.70;12.20;;;5.40;99.90;;;;;;5034962;28;21014;-68
2023/05/24 04:47:09;;;;;;;12.60;12.10;;;5.50;99.90;;;;;;5046998;28;20499;-68
2023/05/24 04:49:36;;;;;;;12.40;11.90;;;5.60;99.90;;;;;;5043616;28;20468;-68
2023/05/24 04:52:07;;;;;;;12.30;11.80;;;5.70;99.90;;;;;;5043240;28;21012;-68
2023/05/24 04:54:34;;;;;;;12.63;12.13;;;5.80;99.90;;;;;;5040674;28;20471;-67
2023/05/24 04:57:01;;;;;;;13.37;12.87;;;5.80;99.90;;;;;;5038237;28;20460;-68
2023/05/24 04:59:28;;;;;;;13.00;12.50;;;6.00;99.90;;;;;;5039755;28;20462;-67
2023/05/24 05:01:54;;;;;;;12.80;12.30;;;6.00;99.90;;;;;;5035265;28;20884;-68
2023/05/24 05:04:22;;;;;;;12.87;12.37;;;6.10;99.90;;;;;;5032510;28;20474;-68
2023/05/24 05:06:49;;;;;;;13.70;13.10;;;6.10;99.90;;;;;;5035409;28;20584;-68
2023/05/24 05:09:18;;;;;;;12.63;12.13;;;6.20;99.90;;;;;;5038633;28;20470;-67
2023/05/24 05:11:47;;;;;;;12.20;11.70;;;6.30;99.90;;;;;;5036457;28;20475;-67
2023/05/24 05:14:14;;;;;;;13.20;12.70;;;6.30;99.90;;;;;;5042253;28;20457;-67
2023/05/24 05:16:42;;;;;;;12.90;12.30;;;6.40;99.90;;;;;;5037986;28;20464;-68
2023/05/24 05:19:08;;;;;;;12.40;11.90;;;6.50;99.90;;;;;;5040970;28;20886;-68
2023/05/24 05:21:38;;;;;;;11.63;11.23;;;6.60;99.90;;;;;;5043779;28;20947;-68
2023/05/24 05:24:05;;;;;;;11.03;10.63;;;6.80;99.90;;;;;;5041913;28;20478;-68
2023/05/24 05:26:34;;;;;;;10.20;9.80;;;7.00;99.90;;;;;;5037991;28;20889;-68
2023/05/24 05:29:01;;;;;;;10.60;10.20;;;7.30;99.90;;;;;;5042276;28;20460;-68
2023/05/24 05:31:29;;;;;;;10.30;9.90;;;7.50;99.90;;;;;;5037838;28;20464;-68
2023/05/24 05:33:56;;;;;;;10.47;10.07;;;7.60;99.90;;;;;;5042237;28;20813;-68
2023/05/24 05:36:24;;;;;;;10.20;9.80;;;7.90;99.90;;;;;;5037296;28;20554;-68
2023/05/24 05:38:51;;;;;;;10.10;9.70;;;8.10;99.90;;;;;;5038709;28;20501;-68
2023/05/24 05:41:18;;;;;;;10.77;10.27;;;8.20;99.90;;;;;;5043487;28;20599;-68
2023/05/24 05:43:46;;;;;;;10.00;9.60;;;8.40;99.90;;;;;;5039067;28;20464;-68
2023/05/24 05:46:15;;;;;;;9.60;9.30;;;8.40;99.90;;;;;;5042254;28;20487;-68
2023/05/24 05:48:42;;;;;;;10.70;10.30;;;8.60;99.90;;;;;;5040443;28;20468;-68
2023/05/24 05:51:09;;;;;;;10.87;9.90;;;8.70;99.90;;;;;;5045406;28;20513;-68
2023/05/24 05:53:36;;;;;;;8.73;8.43;;;8.80;99.90;;;;;;5042053;28;20459;-69
2023/05/24 05:56:03;;;;;;;15.37;8.33;;;9.00;99.90;;;;;;5040130;28;20512;-68
2023/05/24 05:58:31;;;;;;;6.00;5.80;;;9.10;99.90;;;;;;5044129;28;20467;-68
2023/05/24 06:00:59;;;;;;;5.93;5.73;;;9.20;99.90;;;;;;5035229;28;20822;-68
2023/05/24 06:03:26;;;;;;;6.00;5.80;;;9.40;99.90;;;;;;5041075;28;20479;-68
2023/05/24 06:05:53;;;;;;;8.30;6.80;;;9.40;99.90;;;;;;5039587;28;20491;-68
2023/05/24 06:08:20;;;;;;;6.40;6.20;;;9.60;99.90;;;;;;5037209;28;20468;-69
2023/05/24 06:10:46;;;;;;;8.90;8.40;;;9.70;99.90;;;;;;5043083;28;20460;-69
2023/05/24 06:13:14;;;;;;;6.90;6.70;;;9.90;99.90;;;;;;5044239;28;20809;-67
2023/05/24 06:15:40;;;;;;;7.43;7.23;;;9.90;99.90;;;;;;5036740;28;20470;-69
2023/05/24 06:18:09;;;;;;;7.57;7.37;;;10.10;99.90;;;;;;5041743;28;20498;-68
2023/05/24 06:20:36;;;;;;;7.63;7.43;;;10.30;99.90;;;;;;5029488;28;21014;-68
2023/05/24 06:23:05;;;;;;;8.90;8.60;;;10.20;99.90;;;;;;5048502;28;20573;-68
2023/05/24 06:25:33;;;;;;;9.20;8.90;;;10.10;99.90;;;;;;5039829;28;20485;-68
2023/05/24 06:28:00;;;;;;;9.63;9.23;;;10.00;99.90;;;;;;5037050;28;20531;-69
2023/05/24 06:30:27;;;;;;;10.70;10.20;;;10.10;99.90;;;;;;5040046;28;20464;-68
2023/05/24 06:32:55;;;;;;;11.70;11.20;;;10.30;99.90;;;;;;5038580;28;20472;-69
2023/05/24 06:35:23;;;;;;;19.60;12.23;;;10.70;99.90;;;;;;5033694;28;20591;-69
2023/05/24 06:37:50;;;;;;;13.10;12.40;;;10.90;99.90;;;;;;5032651;28;20488;-68
2023/05/24 06:40:16;;;;;;;12.77;11.63;;;11.00;99.90;;;;;;5043681;28;20964;-68
2023/05/24 06:42:43;;;;;;;11.90;11.43;;;11.20;99.90;;;;;;5047278;28;20552;-69
2023/05/24 06:45:11;;;;;;;12.50;12.00;;;11.20;99.90;;;;;;5039372;28;20889;-68
2023/05/24 06:47:38;;;;;;;12.73;12.23;;;11.50;99.90;;;;;;5045285;28;20492;-70
2023/05/24 06:50:06;;;;;;;12.83;12.33;;;11.60;99.90;;;;;;5034633;28;20461;-69
2023/05/24 06:52:34;;;;;;;13.10;12.60;;;11.30;99.90;;;;;;5040668;28;20460;-69
2023/05/24 06:55:01;;;;;;;14.83;13.30;;;11.50;99.90;;;;;;5036240;28;20514;-68
2023/05/24 06:57:28;;;;;;;15.00;13.50;;;11.30;99.90;;;;;;5035551;28;20914;-69
2023/05/24 06:59:55;;;;;;;14.63;13.93;;;11.30;99.90;;;;;;5032168;28;20869;-69
2023/05/24 07:02:26;;;;;;;14.37;13.70;;;11.60;99.90;;;;;;5042318;28;20858;-68
2023/05/24 07:04:52;;;;;;;13.47;12.87;;;11.90;99.90;;;;;;5037599;28;20943;-69
2023/05/24 07:07:20;;;;;;;14.77;13.97;;;12.10;99.90;;;;;;5035328;28;20499;-70
2023/05/24 07:09:48;;;;;;;13.93;13.33;;;12.40;99.90;;;;;;5039363;28;20464;-68
2023/05/24 07:12:15;;;;;;;15.50;14.00;;;12.70;99.90;;;;;;5035214;28;20464;-69
2023/05/24 07:14:42;;;;;;;13.67;13.07;;;13.00;99.90;;;;;;5040285;28;20460;-68
2023/05/24 07:17:09;;;;;;;14.70;14.00;;;13.20;99.90;;;;;;5034113;28;21019;-68
2023/05/24 07:19:36;;;;;;;15.60;14.60;;;13.30;99.90;;;;;;5040734;28;20492;-69
2023/05/24 07:22:03;;;;;;;14.40;13.70;;;13.40;99.90;;;;;;5039088;28;20463;-69
2023/05/24 07:24:31;;;;;;;14.57;13.90;;;13.40;99.90;;;;;;5039597;28;20469;-67
2023/05/24 07:27:00;;;;;;;15.30;14.50;;;13.50;99.90;;;;;;5044207;28;20494;-68
2023/05/24 07:29:26;;;;;;;16.80;15.53;;;13.60;99.90;;;;;;5038384;28;20464;-68
2023/05/24 07:31:56;;;;;;;14.13;13.53;;;13.70;99.90;;;;;;5038759;28;21026;-68
2023/05/24 07:34:26;;;;;;;16.40;15.60;;;13.80;99.90;;;;;;5037792;28;21386;-68
2023/05/24 07:36:53;;;;;;;15.03;14.33;;;13.80;99.90;;;;;;5030576;28;20461;-68
2023/05/24 07:39:20;;;;;;;16.13;15.07;;;14.20;99.90;;;;;;5042702;28;20958;-68
2023/05/24 07:41:47;;;;;;;16.20;15.00;;;14.30;99.90;;;;;;5035186;28;20521;-67
2023/05/24 07:44:15;;;;;;;16.03;15.13;;;13.70;99.90;;;;;;5040166;28;20456;-68
2023/05/24 07:46:42;;;;;;;16.07;14.97;;;14.00;99.90;;;;;;5033469;28;21012;-68
2023/05/24 07:49:11;;;;;;;17.80;16.10;;;14.10;99.90;;;;;;5033176;28;20925;-68
2023/05/24 07:51:38;;;;;;;16.37;15.57;;;14.10;99.90;;;;;;5032347;28;20472;-69
2023/05/24 07:54:05;;;;;;;14.27;13.67;;;14.10;99.90;;;;;;5037960;28;20472;-67
2023/05/24 07:56:32;;;;;;;16.50;15.63;;;14.00;99.90;;;;;;5034423;28;20458;-68
2023/05/24 07:59:03;;;;;;;32.97;15.67;;;14.20;99.90;;;;;;5039471;28;20830;-68
2023/05/24 08:01:33;;;;;;;17.27;15.83;;;14.30;99.90;;;;;;5033194;28;20460;-67
2023/05/24 08:04:00;;;;;;;14.40;13.80;;;13.90;99.90;;;;;;5035580;28;20544;-67
2023/05/24 08:06:27;;;;;;;14.03;13.43;;;13.70;99.90;;;;;;5031662;28;20495;-68
2023/05/24 08:08:54;;;;;;;13.90;13.30;;;13.60;99.90;;;;;;5037375;28;20997;-69
2023/05/24 08:11:21;;;;;;;15.30;14.60;;;13.70;99.90;;;;;;5034659;28;20467;-68
2023/05/24 08:13:48;;;;;;;16.17;15.30;;;14.00;99.90;;;;;;5036284;28;20468;-69
2023/05/24 08:16:16;;;;;;;15.93;15.03;;;13.90;99.90;;;;;;5031470;28;20511;-68
2023/05/24 08:18:45;;;;;;;15.70;14.80;;;14.00;99.90;;;;;;5036722;28;20574;-69
2023/05/24 08:21:13;;;;;;;16.00;15.03;;;14.30;99.90;;;;;;5037073;28;20492;-68
2023/05/24 08:23:41;;;;;;;16.90;15.80;;;14.40;99.90;;;;;;5031813;28;20456;-69
2023/05/24 08:26:08;;;;;;;16.80;15.30;;;14.80;99.90;;;;;;5030542;28;20515;-69
2023/05/24 08:28:36;;;;;;;14.77;14.17;;;15.20;99.90;;;;;;5039009;28;20492;-68
2023/05/24 08:31:03;;;;;;;16.93;15.73;;;16.10;99.90;;;;;;5032201;28;20971;-68
2023/05/24 08:33:29;;;;;;;16.10;15.23;;;16.30;99.90;;;;;;5030691;28;20464;-68
2023/05/24 08:35:58;;;;;;;17.30;16.10;;;15.90;99.90;;;;;;5031791;28;20474;-67
2023/05/24 08:38:26;;;;;;;16.33;15.23;;;15.40;99.90;;;;;;5034793;28;20460;-67
2023/05/24 08:40:52;;;;;;;15.60;14.80;;;14.80;99.90;;;;;;5033502;28;20656;-67
2023/05/24 08:43:21;;;;;;;16.37;15.57;;;14.90;99.90;;;;;;5034656;28;20815;-67
2023/05/24 08:45:49;;;;;;;15.77;14.97;;;15.10;99.90;;;;;;5036450;28;20979;-68
2023/05/24 08:48:18;;;;;;;17.20;16.40;;;15.10;99.90;;;;;;5030456;28;20491;-68
2023/05/24 08:50:46;;;;;;;16.57;15.57;;;15.20;99.90;;;;;;5035143;28;20466;-66
2023/05/24 08:53:14;;;;;;;17.20;16.30;;;15.00;99.90;;;;;;5030030;28;20464;-69
2023/05/24 08:55:42;;;;;;;15.83;15.03;;;14.60;99.90;;;;;;5030823;28;20530;-68
2023/05/24 08:58:10;;;;;;;15.90;15.07;;;14.50;99.90;;;;;;5031045;28;20518;-67
2023/05/24 09:00:37;;;;;;;17.27;16.17;;;14.10;99.90;;;;;;5033372;28;20970;-66
2023/05/24 09:03:05;;;;;;;15.00;14.30;;;13.80;99.90;;;;;;5037557;28;20970;-68
2023/05/24 09:05:33;;;;;;;15.80;14.90;;;13.70;99.90;;;;;;5029733;28;20537;-68
2023/05/24 09:08:03;;;;;;;15.37;14.47;;;13.60;99.90;;;;;;5036070;28;21100;-67
2023/05/24 09:10:33;;;;;;;15.83;14.60;;;13.70;99.90;;;;;;5035012;28;20489;-67
2023/05/24 09:13:03;;;;;;;14.90;14.20;;;13.80;99.90;;;;;;5027086;28;20467;-67
2023/05/24 09:15:29;;;;;;;16.67;15.40;;;14.10;99.90;;;;;;5037944;28;20510;-67
2023/05/24 09:17:56;;;;;;;15.30;14.60;;;14.20;99.90;;;;;;5032657;28;20641;-68
2023/05/24 09:20:23;;;;;;;13.83;13.23;;;14.20;99.90;;;;;;5033820;28;20487;-67
2023/05/24 09:22:52;;;;;;;15.40;14.50;;;14.30;99.90;;;;;;5034373;28;20992;-67
2023/05/24 09:25:20;;;;;;;14.53;13.60;;;14.50;99.90;;;;;;5037427;28;20902;-67
2023/05/24 09:27:52;;;;;;;14.00;13.40;;;14.50;99.90;;;;;;5037262;28;20546;-66
2023/05/24 09:30:20;;;;;;;14.70;14.00;;;14.70;99.90;;;;;;5022803;28;20554;-68
2023/05/24 09:32:57;;;;;;;17.87;16.10;;;15.00;99.90;;;;;;5031426;28;20453;-67
2023/05/24 09:35:25;;;;;;;15.83;14.93;;;15.40;99.90;;;;;;5036297;28;20509;-67
2023/05/24 09:37:56;;;;;;;15.40;14.70;;;15.70;99.90;;;;;;5028256;28;20460;-67
2023/05/24 09:40:23;;;;;;;14.80;14.10;;;16.00;99.90;;;;;;5034236;28;20461;-67
2023/05/24 09:43:06;;;;;;;17.03;16.00;;;16.40;99.90;;;;;;5036758;28;20456;-67
2023/05/24 09:45:33;;;;;;;17.00;16.00;;;16.40;99.90;;;;;;5036188;28;20492;-67
2023/05/24 09:48:03;;;;;;;15.27;14.47;;;16.40;99.90;;;;;;5034275;28;20739;-67
2023/05/24 09:50:31;;;;;;;17.53;16.00;;;16.50;99.90;;;;;;5032042;28;20464;-67
2023/05/24 09:52:57;;;;;;;18.73;16.30;;;17.00;99.90;;;;;;5027368;28;20464;-67
2023/05/24 09:55:27;;;;;;;15.63;14.83;;;16.80;99.90;;;;;;5034598;28;21094;-67
2023/05/24 09:58:06;;;;;;;15.40;14.70;;;16.90;99.90;;;;;;5038232;28;20463;-66
2023/05/24 10:00:35;;;;;;;15.33;14.63;;;17.20;99.90;;;;;;5035336;28;21286;-66
2023/05/24 10:03:05;;;;;;;15.50;14.70;;;17.40;99.90;;;;;;5040170;28;21366;-65
2023/05/24 10:05:32;;;;;;;16.13;14.90;;;17.80;99.90;;;;;;5040711;28;20572;-66
2023/05/24 10:07:59;;;;;;;15.37;14.57;;;17.50;99.90;;;;;;5041243;28;20499;-66
2023/05/24 10:10:28;;;;;;;16.60;15.50;;;17.00;99.90;;;;;;5034942;28;20460;-66
2023/05/24 10:12:56;;;;;;;15.47;14.67;;;17.10;99.90;;;;;;5032545;28;20551;-66
2023/05/24 10:15:26;;;;;;;14.67;13.97;;;17.00;99.90;;;;;;5039140;28;20779;-65
2023/05/24 10:17:53;;;;;;;13.87;13.30;;;16.70;99.90;;;;;;5029283;28;20460;-67
2023/05/24 10:20:21;;;;;;;14.17;13.57;;;16.70;99.90;;;;;;5033846;28;20504;-67
2023/05/24 10:22:51;;;;;;;15.43;14.50;;;16.60;99.90;;;;;;5036809;28;20963;-66
2023/05/24 10:25:24;;;;;;;14.83;14.13;;;16.50;99.90;;;;;;5034991;28;20974;-66
2023/05/24 10:27:54;;;;;;;14.13;13.53;;;16.10;99.90;;;;;;5034509;28;20472;-67
2023/05/24 10:30:28;;;;;;;14.43;13.83;;;15.80;99.90;;;;;;5035242;28;20476;-66
2023/05/24 10:32:57;;;;;;;17.30;16.23;;;15.70;99.90;;;;;;5030729;28;20534;-65
2023/05/24 10:35:26;;;;;;;16.00;15.30;;;15.90;99.90;;;;;;5035085;28;20463;-65
2023/05/24 10:37:54;;;;;;;16.73;15.50;;;16.10;99.90;;;;;;5035932;28;21241;-66
2023/05/24 10:40:24;;;;;;;15.00;14.30;;;15.90;99.90;;;;;;5033767;28;20467;-64
2023/05/24 10:42:51;;;;;;;15.10;14.40;;;15.60;99.90;;;;;;5035350;28;20461;-65
2023/05/24 10:45:34;;;;;;;14.47;13.87;;;15.30;99.90;;;;;;5030270;28;20502;-65
2023/05/24 10:48:20;;;;;;;14.43;13.73;;;15.50;99.90;;;;;;5037832;28;20541;-66
2023/05/24 10:50:48;;;;;;;14.30;13.70;;;15.60;99.90;;;;;;5039891;28;20551;-67
2023/05/24 10:53:16;;;;;;;14.30;13.70;;;15.50;99.90;;;;;;5038697;28;20514;-66
2023/05/24 10:55:54;;;;;;;14.47;13.83;;;15.70;99.90;;;;;;5036785;28;20541;-66
2023/05/24 10:58:23;;;;;;;14.57;13.97;;;15.90;99.90;;;;;;5033298;28;20467;-66
2023/05/24 11:00:53;;;;;;;15.07;14.33;;;16.00;99.90;;;;;;5038419;28;20458;-67
2023/05/24 11:03:23;;;;;;;13.90;13.30;;;16.00;99.90;;;;;;5036893;28;20476;-66
2023/05/24 11:06:04;;;;;;;14.70;14.00;;;16.20;99.90;;;;;;5038994;28;20679;-65
2023/05/24 11:08:34;;;;;;;40.03;17.27;;;17.00;99.90;;;;;;5029766;28;20880;-67
2023/05/24 11:11:08;;;;;;;14.90;14.30;;;17.60;99.90;;;;;;5037420;28;20496;-66
2023/05/24 11:13:37;;;;;;;15.67;14.57;;;17.80;99.90;;;;;;5034969;28;20562;-67
2023/05/24 11:16:06;;;;;;;15.27;14.60;;;18.10;99.90;;;;;;5036049;28;20459;-65
2023/05/24 11:18:37;;;;;;;14.30;13.70;;;18.60;99.90;;;;;;5035096;28;20464;-66
2023/05/24 11:21:05;;;;;;;15.87;14.93;;;20.10;99.90;;;;;;5042167;28;20547;-65
2023/05/24 11:23:32;;;;;;;15.10;14.40;;;21.10;99.90;;;;;;5034540;28;20460;-65
2023/05/24 11:26:01;;;;;;;14.40;13.80;;;22.10;99.90;;;;;;5037907;28;20558;-65
2023/05/24 11:28:29;;;;;;;16.27;15.17;;;21.40;99.10;;;;;;5034256;28;20883;-65
2023/05/24 11:30:56;;;;;;;17.83;15.93;;;20.40;99.90;;;;;;5037427;28;20470;-65
2023/05/24 11:33:26;;;;;;;16.63;15.70;;;19.50;99.90;;;;;;5034185;28;21296;-64
2023/05/24 11:35:55;;;;;;;16.10;15.20;;;19.50;99.90;;;;;;5035871;28;20457;-65
2023/05/24 11:38:22;;;;;;;16.00;15.20;;;19.60;99.90;;;;;;5038252;28;20572;-65
2023/05/24 11:40:50;;;;;;;17.13;16.23;;;19.40;99.90;;;;;;5032408;28;20982;-66
2023/05/24 11:43:18;;;;;;;16.73;15.83;;;19.60;99.90;;;;;;5037978;28;20464;-65
2023/05/24 11:45:47;;;;;;;14.60;14.00;;;19.90;99.90;;;;;;5035879;28;20465;-65
2023/05/24 11:48:14;;;;;;;17.40;15.83;;;19.70;99.90;;;;;;5042271;28;20499;-64
2023/05/24 11:50:45;;;;;;;17.17;16.27;;;19.30;99.90;;;;;;5033437;28;20460;-65
2023/05/24 11:53:13;;;;;;;15.23;14.53;;;18.80;99.90;;;;;;5039159;28;20464;-65
2023/05/24 11:55:41;;;;;;;14.80;14.20;;;18.70;99.90;;;;;;5036954;28;21054;-64
2023/05/24 11:58:15;;;;;;;15.70;15.00;;;18.80;99.90;;;;;;5032848;28;20513;-65
2023/05/24 12:00:43;;;;;;;16.30;15.50;;;18.90;99.30;;;;;;5034205;28;20564;-65
2023/05/24 12:03:10;;;;;;;14.97;14.37;;;18.80;99.60;;;;;;5042291;28;20465;-64
2023/05/24 12:05:38;;;;;;;17.40;16.60;;;19.00;99.90;;;;;;5031802;28;20520;-65
2023/05/24 12:08:08;;;;;;;15.20;14.60;;;18.80;99.70;;;;;;5039183;28;20855;-66
2023/05/24 12:10:36;;;;;;;16.77;15.53;;;19.20;99.90;;;;;;5037352;28;20525;-65
2023/05/24 12:13:04;;;;;;;16.67;15.17;;;19.70;99.50;;;;;;5034119;28;20448;-64
2023/05/24 12:15:32;;;;;;;16.07;15.20;;;19.60;99.50;;;;;;5037445;28;21050;-66
2023/05/24 12:17:59;;;;;;;32.23;16.27;;;19.90;98.70;;;;;;5032065;28;20526;-66
2023/05/24 12:20:29;;;;;;;15.00;14.40;;;20.40;97.60;;;;;;5036102;28;20498;-65
2023/05/24 12:22:57;;;;;;;15.20;14.43;;;20.60;96.80;;;;;;5038623;28;21033;-66
2023/05/24 12:25:25;;;;;;;19.30;16.57;;;20.00;96.70;;;;;;5030096;28;21195;-65
2023/05/24 12:27:55;;;;;;;15.03;14.43;;;19.40;96.70;;;;;;5033365;28;20635;-66
2023/05/24 12:30:24;;;;;;;14.93;14.30;;;18.40;97.70;;;;;;5034435;28;20475;-66
2023/05/24 12:32:52;;;;;;;15.10;14.50;;;18.00;99.00;;;;;;5023821;28;20472;-65
2023/05/24 12:35:20;;;;;;;14.83;14.23;;;17.80;98.70;;;;;;5030523;28;20822;-64
2023/05/24 12:37:49;;;;;;;16.60;15.60;;;17.90;99.90;;;;;;5034948;28;20991;-66
2023/05/24 12:40:19;;;;;;;15.50;14.70;;;17.70;99.20;;;;;;5031800;28;20491;-65
2023/05/24 12:42:50;;;;;;;16.53;15.20;;;17.70;98.50;;;;;;5036159;28;20494;-65